Time;durP1;ratioP1;P1;durP2;ratioP2;P2;SDS_P1;SDS_P2;PMS_P1;PMS_P2;Temp;Humidity;BMP_temperature;BMP_pressure;BME280_temperature;BME280_humidity;BME280_pressure;Samples;Min_cycle;Max_cycle;Signal;HPM_P1;HPM_P2
2023/01/20 00:01:46;;;;;;;9.30;8.07;;;1.50;99.90;;;;;;5076241;28;20226;-80
2023/01/20 00:04:17;;;;;;;8.73;7.93;;;1.50;1.00;;;;;;5077211;28;20208;-80
2023/01/20 00:06:46;;;;;;;10.40;8.25;;;1.70;1.00;;;;;;5080110;28;20205;-82
2023/01/20 00:09:17;;;;;;;10.27;7.85;;;1.70;99.90;;;;;;5082687;28;20228;-80
2023/01/20 00:11:45;;;;;;;9.00;7.97;;;1.70;99.90;;;;;;5082480;28;20232;-80
2023/01/20 00:14:14;;;;;;;15.40;9.45;;;1.70;99.90;;;;;;5078394;28;20210;-81
2023/01/20 00:16:42;;;;;;;16.25;10.02;;;1.70;1.00;;;;;;5078208;28;20212;-81
2023/01/20 00:19:12;;;;;;;19.13;10.70;;;1.70;99.90;;;;;;5073084;28;20217;-81
2023/01/20 00:21:41;;;;;;;13.75;8.52;;;1.70;1.00;;;;;;5074935;28;20220;-81
2023/01/20 00:24:10;;;;;;;11.95;8.27;;;1.70;1.00;;;;;;5071601;28;20208;-80
2023/01/20 00:26:39;;;;;;;10.43;7.65;;;1.70;1.00;;;;;;5067616;28;20197;-81
2023/01/20 00:29:09;;;;;;;10.88;9.50;;;1.70;1.00;;;;;;5076433;28;20223;-81
2023/01/20 00:31:37;;;;;;;10.98;9.07;;;1.70;1.00;;;;;;5055520;28;20379;-81
2023/01/20 00:34:06;;;;;;;12.15;8.93;;;1.70;1.00;;;;;;5051012;28;20258;-81
2023/01/20 00:36:34;;;;;;;11.00;8.38;;;1.80;1.00;;;;;;5074815;28;20232;-81
2023/01/20 00:39:03;;;;;;;13.75;9.57;;;1.80;1.00;;;;;;5075406;28;20210;-82
2023/01/20 00:41:31;;;;;;;12.00;9.10;;;1.70;1.00;;;;;;5057588;28;20227;-81
2023/01/20 00:44:01;;;;;;;12.25;8.65;;;1.80;1.00;;;;;;5070312;28;20205;-82
2023/01/20 00:46:29;;;;;;;10.40;9.05;;;1.70;1.00;;;;;;5076544;28;20654;-82
2023/01/20 00:48:57;;;;;;;10.80;9.70;;;1.70;1.00;;;;;;5052146;28;20207;-82
2023/01/20 00:51:25;;;;;;;14.02;9.57;;;1.70;1.00;;;;;;5074438;28;20220;-82
2023/01/20 00:53:53;;;;;;;13.90;10.38;;;1.80;1.00;;;;;;5075887;28;20193;-81
2023/01/20 00:56:22;;;;;;;16.30;12.18;;;2.00;99.90;;;;;;5078002;28;20939;-81
2023/01/20 00:58:50;;;;;;;20.30;15.10;;;2.00;99.90;;;;;;5080412;28;20225;-81
2023/01/20 01:01:19;;;;;;;24.65;17.75;;;2.00;99.90;;;;;;5080568;28;20221;-81
2023/01/20 01:03:48;;;;;;;23.33;15.80;;;1.90;99.90;;;;;;5075334;28;20215;-81
2023/01/20 01:06:17;;;;;;;15.43;11.13;;;1.80;1.00;;;;;;5080793;28;20783;-80
2023/01/20 01:08:45;;;;;;;8.70;7.90;;;1.70;1.00;;;;;;5079952;28;20196;-81
2023/01/20 01:11:13;;;;;;;10.65;8.15;;;1.60;1.00;;;;;;5083515;28;20278;-81
2023/01/20 01:13:42;;;;;;;12.23;9.80;;;1.80;1.00;;;;;;5078287;28;20208;-81
2023/01/20 01:16:12;;;;;;;10.65;9.38;;;1.70;1.00;;;;;;5077388;28;20854;-81
2023/01/20 01:18:43;;;;;;;13.85;9.20;;;1.70;1.00;;;;;;5078556;28;20216;-81
2023/01/20 01:21:13;;;;;;;9.60;8.18;;;1.80;1.00;;;;;;5077261;28;20220;-82
2023/01/20 01:23:41;;;;;;;10.90;8.05;;;1.80;1.00;;;;;;5082061;28;20231;-81
2023/01/20 01:26:10;;;;;;;9.48;7.32;;;1.70;1.00;;;;;;5077208;28;20213;-81
2023/01/20 01:28:38;;;;;;;9.25;8.35;;;1.90;1.00;;;;;;5080739;28;20272;-82
2023/01/20 01:31:08;;;;;;;12.57;9.18;;;1.90;1.00;;;;;;5071816;28;20248;-83
2023/01/20 01:33:36;;;;;;;11.30;8.85;;;1.80;1.00;;;;;;5061963;28;20876;-80
2023/01/20 01:36:08;;;;;;;9.73;8.30;;;1.70;1.00;;;;;;5081976;28;20255;-83
2023/01/20 01:38:36;;;;;;;11.55;8.80;;;1.70;1.00;;;;;;5083097;28;20212;-82
2023/01/20 01:41:04;;;;;;;12.93;8.90;;;1.70;45.30;;;;;;5081615;28;20274;-82
2023/01/20 01:43:34;;;;;;;11.85;8.88;;;1.60;1.00;;;;;;5076340;28;20205;-81
2023/01/20 01:46:03;;;;;;;9.30;8.18;;;1.70;21.80;;;;;;5080589;28;20561;-81
2023/01/20 01:48:35;;;;;;;10.45;8.73;;;1.60;99.90;;;;;;5078172;28;20250;-81
2023/01/20 01:51:09;;;;;;;7.63;6.93;;;1.60;91.00;;;;;;5081059;28;20217;-82
2023/01/20 01:53:41;;;;;;;9.68;7.30;;;1.70;99.90;;;;;;5082013;28;20739;-82
2023/01/20 01:56:11;;;;;;;8.38;6.78;;;1.90;1.00;;;;;;5068621;28;20197;-80
2023/01/20 01:58:44;;;;;;;8.85;7.95;;;1.80;1.00;;;;;;5076700;28;20579;-82
2023/01/20 02:01:13;;;;;;;9.48;7.63;;;1.80;1.00;;;;;;5081655;28;20226;-81
2023/01/20 02:03:49;;;;;;;9.35;7.65;;;1.70;22.00;;;;;;5071121;28;20200;-82
2023/01/20 02:06:20;;;;;;;8.50;7.70;;;1.70;1.00;;;;;;5086122;28;20211;-82
2023/01/20 02:08:49;;;;;;;9.98;7.90;;;1.60;1.00;;;;;;5084947;28;20196;-81
2023/01/20 02:11:17;;;;;;;8.57;7.68;;;1.60;39.40;;;;;;5082478;28;20248;-81
2023/01/20 02:13:45;;;;;;;8.65;7.80;;;1.50;99.90;;;;;;5082191;28;20232;-81
2023/01/20 02:16:18;;;;;;;8.95;8.05;;;1.60;28.80;;;;;;5065227;28;20202;-82
2023/01/20 02:19:00;;;;;;;10.05;7.80;;;1.70;1.00;;;;;;5084232;28;20304;-80
2023/01/20 02:21:59;;;;;;;10.63;6.80;;;1.70;1.00;;;;;;5080342;28;20228;-83
2023/01/20 02:25:06;;;;;;;8.63;7.78;;;1.60;98.50;;;;;;5084832;28;20262;-80
2023/01/20 02:28:11;;;;;;;9.02;7.05;;;1.50;99.90;;;;;;5085553;28;20196;-82
2023/01/20 02:30:55;;;;;;;8.23;7.35;;;1.50;99.60;;;;;;5062408;28;20217;-82
2023/01/20 02:33:29;;;;;;;8.18;7.28;;;1.60;99.90;;;;;;5075602;28;20197;-81
2023/01/20 02:36:02;;;;;;;9.10;7.35;;;1.60;99.90;;;;;;5063381;28;20286;-81
2023/01/20 02:38:37;;;;;;;7.40;6.70;;;1.50;99.90;;;;;;5077268;28;20205;-81
2023/01/20 02:41:10;;;;;;;9.80;7.65;;;1.50;99.90;;;;;;5078836;28;20239;-83
2023/01/20 02:43:48;;;;;;;9.25;7.85;;;1.50;99.90;;;;;;5078015;28;20219;-82
2023/01/20 02:46:24;;;;;;;9.00;7.38;;;1.40;99.90;;;;;;5084124;28;20208;-83
2023/01/20 02:48:59;;;;;;;7.68;6.97;;;1.50;99.90;;;;;;5077747;28;20197;-82
2023/01/20 02:51:33;;;;;;;8.30;7.07;;;1.50;99.90;;;;;;5080127;28;20258;-82
2023/01/20 02:54:05;;;;;;;9.73;7.88;;;1.60;99.90;;;;;;5082063;28;20866;-82
2023/01/20 02:56:34;;;;;;;9.45;7.25;;;1.50;99.90;;;;;;5056274;28;20341;-83
2023/01/20 02:59:08;;;;;;;8.90;7.90;;;1.50;99.90;;;;;;5078863;28;21380;-81
2023/01/20 03:01:40;;;;;;;9.63;7.40;;;1.50;99.90;;;;;;5081715;28;20247;-83
2023/01/20 03:04:12;;;;;;;7.97;7.18;;;1.40;99.90;;;;;;5085395;28;20201;-83
2023/01/20 03:06:46;;;;;;;7.50;6.80;;;1.40;99.90;;;;;;5082242;28;20250;-83
2023/01/20 03:09:20;;;;;;;7.65;6.85;;;1.40;99.90;;;;;;5082815;28;20613;-83
2023/01/20 03:11:54;;;;;;;7.38;6.55;;;1.40;99.90;;;;;;5082929;28;20294;-84
2023/01/20 03:14:23;;;;;;;7.60;6.70;;;1.50;99.90;;;;;;5083621;28;20273;-84
2023/01/20 03:16:51;;;;;;;7.82;6.93;;;1.40;1.00;;;;;;5079469;28;20242;-81
2023/01/20 03:19:21;;;;;;;8.65;7.72;;;1.60;99.90;;;;;;5081783;28;20205;-83
2023/01/20 03:21:49;;;;;;;9.73;7.78;;;1.60;99.90;;;;;;5085519;28;20600;-82
2023/01/20 03:24:17;;;;;;;10.70;7.20;;;1.50;99.90;;;;;;5084026;28;20204;-83
2023/01/20 03:26:45;;;;;;;7.35;6.32;;;1.50;99.90;;;;;;5082046;28;20667;-84
2023/01/20 03:29:14;;;;;;;7.85;7.05;;;1.50;99.90;;;;;;5080352;28;20196;-83
2023/01/20 03:31:47;;;;;;;8.90;7.72;;;1.60;99.90;;;;;;5075491;28;20802;-82
2023/01/20 03:34:21;;;;;;;9.80;8.18;;;1.60;1.20;;;;;;5078500;28;20199;-83
2023/01/20 03:36:51;;;;;;;9.00;6.85;;;1.70;1.00;;;;;;5078727;28;20253;-82
2023/01/20 03:39:20;;;;;;;9.13;7.40;;;1.70;1.00;;;;;;5083011;28;20296;-83
2023/01/20 03:41:59;;;;;;;8.73;7.82;;;1.70;1.00;;;;;;5081919;28;20211;-83
2023/01/20 03:44:39;;;;;;;9.45;7.75;;;1.70;1.00;;;;;;5072105;28;20896;-82
2023/01/20 03:47:14;;;;;;;9.20;7.50;;;1.70;1.00;;;;;;5078542;28;20264;-83
2023/01/20 03:49:52;;;;;;;8.00;7.13;;;1.70;1.00;;;;;;5083486;28;20196;-84
2023/01/20 03:52:30;;;;;;;7.95;7.18;;;1.60;1.00;;;;;;5074658;28;20217;-83
2023/01/20 03:55:21;;;;;;;8.77;7.68;;;1.60;1.00;;;;;;5081924;28;20280;-83
2023/01/20 03:57:54;;;;;;;8.68;7.72;;;1.60;1.00;;;;;;5077135;28;20201;-82
2023/01/20 04:00:27;;;;;;;12.45;8.90;;;1.60;1.00;;;;;;5075177;28;20218;-82
2023/01/20 04:03:00;;;;;;;9.35;7.80;;;1.60;21.00;;;;;;5077450;28;20684;-82
2023/01/20 04:05:30;;;;;;;8.65;7.40;;;1.50;99.90;;;;;;5076132;28;20205;-83
2023/01/20 04:08:01;;;;;;;7.95;7.13;;;1.50;99.90;;;;;;5079276;28;20206;-83
2023/01/20 04:10:32;;;;;;;8.32;6.95;;;1.60;1.00;;;;;;5077679;28;20330;-83
2023/01/20 04:13:00;;;;;;;7.38;6.60;;;1.70;1.00;;;;;;5079747;28;20203;-82
2023/01/20 04:15:32;;;;;;;7.22;6.30;;;1.70;1.00;;;;;;5080949;28;20204;-83
2023/01/20 04:18:11;;;;;;;7.47;6.80;;;1.70;1.00;;;;;;5084572;28;20189;-82
2023/01/20 04:20:41;;;;;;;7.85;7.22;;;1.80;99.90;;;;;;5081195;28;20227;-80
2023/01/20 04:23:18;;;;;;;7.10;5.90;;;1.70;99.90;;;;;;5080837;28;20204;-82
2023/01/20 04:25:46;;;;;;;6.20;5.43;;;1.70;99.90;;;;;;5082993;28;20192;-82
2023/01/20 04:28:14;;;;;;;7.78;5.50;;;1.60;99.90;;;;;;5084336;28;20206;-83
2023/01/20 04:30:42;;;;;;;7.25;6.05;;;1.70;99.90;;;;;;5081503;28;20269;-81
2023/01/20 04:33:10;;;;;;;8.48;6.22;;;1.70;99.90;;;;;;5079708;28;20206;-81
2023/01/20 04:35:40;;;;;;;7.45;5.07;;;1.80;99.90;;;;;;5080104;28;20204;-81
2023/01/20 04:38:08;;;;;;;6.00;5.40;;;1.60;99.90;;;;;;5075276;28;20251;-82
2023/01/20 04:40:36;;;;;;;6.53;5.75;;;1.60;99.90;;;;;;5078213;28;20250;-83
2023/01/20 04:43:04;;;;;;;6.30;5.53;;;1.60;99.90;;;;;;5079388;28;20213;-82
2023/01/20 04:45:32;;;;;;;5.38;4.95;;;1.50;99.90;;;;;;5085928;28;20656;-82
2023/01/20 04:48:01;;;;;;;6.63;5.15;;;1.60;99.90;;;;;;5082874;28;20243;-82
2023/01/20 04:50:29;;;;;;;6.10;5.50;;;1.50;99.90;;;;;;5082374;28;20305;-81
2023/01/20 04:52:58;;;;;;;6.25;5.22;;;1.50;99.90;;;;;;5076266;28;20259;-82
2023/01/20 04:55:27;;;;;;;8.05;5.28;;;1.50;99.90;;;;;;5082064;28;20216;-82
2023/01/20 04:57:55;;;;;;;6.75;5.07;;;1.50;99.90;;;;;;5078086;28;20208;-81
2023/01/20 05:00:24;;;;;;;7.30;4.90;;;1.50;99.90;;;;;;5073790;28;20565;-81
2023/01/20 05:02:52;;;;;;;8.40;6.22;;;1.50;99.90;;;;;;5076194;28;20205;-82
2023/01/20 05:05:20;;;;;;;6.05;4.85;;;1.50;99.90;;;;;;5074063;28;20198;-81
2023/01/20 05:07:52;;;;;;;7.85;5.75;;;1.50;99.90;;;;;;5061080;28;20224;-80
2023/01/20 05:10:21;;;;;;;4.85;4.45;;;1.60;99.90;;;;;;5075811;28;20193;-82
2023/01/20 05:12:50;;;;;;;5.93;5.43;;;1.60;99.90;;;;;;5075295;28;20212;-81
2023/01/20 05:15:18;;;;;;;6.20;5.53;;;1.50;99.90;;;;;;5079295;28;20202;-82
2023/01/20 05:17:46;;;;;;;6.00;5.43;;;1.50;1.00;;;;;;5079874;28;20202;-79
2023/01/20 05:20:15;;;;;;;5.60;4.78;;;1.50;1.00;;;;;;5062221;28;20216;-82
2023/01/20 05:22:43;;;;;;;5.22;4.82;;;1.60;99.90;;;;;;5076306;28;20217;-78
2023/01/20 05:25:11;;;;;;;8.40;6.00;;;1.50;99.90;;;;;;5085091;28;20193;-81
2023/01/20 05:27:41;;;;;;;7.40;5.88;;;1.60;99.90;;;;;;5080808;28;20203;-81
2023/01/20 05:30:10;;;;;;;7.22;5.65;;;1.60;99.90;;;;;;5086965;28;20248;-81
2023/01/20 05:32:39;;;;;;;7.03;5.43;;;1.50;99.90;;;;;;5080325;28;20237;-80
2023/01/20 05:35:08;;;;;;;5.85;5.35;;;1.50;1.00;;;;;;5075572;28;20200;-82
2023/01/20 05:37:37;;;;;;;4.93;4.47;;;1.50;99.90;;;;;;5080776;28;20284;-83
2023/01/20 05:40:06;;;;;;;5.97;5.20;;;1.50;99.90;;;;;;5077388;28;20216;-84
2023/01/20 05:42:34;;;;;;;6.55;5.40;;;1.60;99.90;;;;;;5083559;28;20212;-83
2023/01/20 05:45:04;;;;;;;7.10;5.88;;;1.60;99.90;;;;;;5065128;28;20257;-83
2023/01/20 05:47:32;;;;;;;6.75;5.45;;;1.60;99.90;;;;;;5064500;28;20220;-82
2023/01/20 05:50:01;;;;;;;5.53;4.82;;;1.50;99.90;;;;;;5077639;28;20241;-82
2023/01/20 05:52:29;;;;;;;6.63;5.53;;;1.50;99.90;;;;;;5061539;28;20224;-81
2023/01/20 05:54:57;;;;;;;17.85;9.85;;;1.40;99.90;;;;;;5078412;28;20209;-82
2023/01/20 05:57:26;;;;;;;10.38;7.57;;;1.50;99.90;;;;;;5081421;28;20697;-80
2023/01/20 05:59:54;;;;;;;16.80;13.32;;;1.50;99.90;;;;;;5077231;28;20450;-82
2023/01/20 06:02:24;;;;;;;8.05;7.20;;;1.50;99.90;;;;;;5059033;28;20213;-80
2023/01/20 06:04:52;;;;;;;5.05;4.60;;;1.70;99.90;;;;;;5072723;28;20785;-82
2023/01/20 06:07:20;;;;;;;4.72;4.35;;;1.70;91.90;;;;;;5081475;28;20215;-82
2023/01/20 06:09:48;;;;;;;5.38;4.88;;;1.60;99.90;;;;;;5066293;28;20232;-82
2023/01/20 06:12:16;;;;;;;6.00;5.15;;;1.50;99.90;;;;;;5083960;28;20252;-82
2023/01/20 06:14:45;;;;;;;6.22;4.93;;;1.50;99.90;;;;;;5081354;28;20836;-83
2023/01/20 06:17:13;;;;;;;5.35;4.90;;;1.50;99.90;;;;;;5083908;28;20205;-81
2023/01/20 06:19:42;;;;;;;5.88;5.22;;;1.40;99.90;;;;;;5081937;28;20202;-82
2023/01/20 06:22:14;;;;;;;5.40;4.90;;;1.30;99.90;;;;;;5084698;28;20291;-83
2023/01/20 06:24:42;;;;;;;6.78;6.15;;;1.40;99.90;;;;;;5079535;28;20201;-83
2023/01/20 06:27:11;;;;;;;5.45;4.95;;;1.30;99.90;;;;;;5081480;28;20197;-83
2023/01/20 06:29:40;;;;;;;5.65;5.15;;;1.40;99.90;;;;;;5085640;28;20203;-83
2023/01/20 06:32:08;;;;;;;7.57;5.65;;;1.40;99.90;;;;;;5079834;28;20220;-84
2023/01/20 06:34:37;;;;;;;6.20;5.60;;;1.50;99.90;;;;;;5080321;28;20206;-83
2023/01/20 06:37:06;;;;;;;5.45;4.88;;;1.40;99.90;;;;;;5082780;28;20207;-82
2023/01/20 06:39:34;;;;;;;6.75;5.90;;;1.40;99.90;;;;;;5078293;28;20604;-82
2023/01/20 06:42:02;;;;;;;5.78;5.05;;;1.30;99.90;;;;;;5075625;28;20273;-83
2023/01/20 06:44:30;;;;;;;6.05;4.65;;;1.40;99.90;;;;;;5079400;28;20203;-84
2023/01/20 06:46:59;;;;;;;8.10;5.70;;;1.30;99.90;;;;;;5084134;28;20211;-83
2023/01/20 06:49:27;;;;;;;6.00;5.50;;;1.30;99.90;;;;;;5064295;28;20261;-83
2023/01/20 06:51:55;;;;;;;5.88;4.75;;;1.40;99.90;;;;;;5059789;28;20212;-82
2023/01/20 06:54:26;;;;;;;6.03;5.38;;;1.30;99.90;;;;;;5082352;28;20205;-82
2023/01/20 06:56:54;;;;;;;5.57;5.07;;;1.30;99.90;;;;;;5083257;28;20196;-83
2023/01/20 06:59:22;;;;;;;4.88;4.45;;;1.30;99.90;;;;;;5084712;28;20687;-83
2023/01/20 07:01:50;;;;;;;6.90;4.78;;;1.30;93.50;;;;;;5079935;28;20221;-83
2023/01/20 07:04:19;;;;;;;6.43;5.15;;;1.20;90.90;;;;;;5080644;28;20212;-83
2023/01/20 07:06:47;;;;;;;5.60;5.10;;;1.20;68.10;;;;;;5066359;28;20291;-82
2023/01/20 07:09:15;;;;;;;8.98;5.18;;;1.20;95.20;;;;;;5084437;28;20278;-82
2023/01/20 07:11:45;;;;;;;7.30;5.63;;;1.20;99.90;;;;;;5082450;28;20222;-83
2023/01/20 07:14:13;;;;;;;5.40;4.88;;;1.00;95.40;;;;;;5081711;28;20204;-82
2023/01/20 07:16:41;;;;;;;6.03;4.80;;;0.90;99.90;;;;;;5078384;28;20734;-82
2023/01/20 07:19:10;;;;;;;6.63;4.80;;;0.90;99.90;;;;;;5079913;28;20208;-83
2023/01/20 07:21:38;;;;;;;5.95;5.45;;;1.00;99.90;;;;;;5081097;28;20224;-83
2023/01/20 07:24:07;;;;;;;7.85;5.30;;;1.00;99.90;;;;;;5085614;28;20712;-83
2023/01/20 07:26:35;;;;;;;6.60;5.93;;;1.00;99.90;;;;;;5086181;28;20223;-82
2023/01/20 07:29:05;;;;;;;5.25;4.95;;;1.10;99.90;;;;;;5065246;28;20547;-82
2023/01/20 07:31:33;;;;;;;6.35;5.75;;;1.00;99.90;;;;;;5070383;28;20304;-83
2023/01/20 07:34:01;;;;;;;6.60;6.07;;;1.00;99.90;;;;;;5082256;28;20203;-83
2023/01/20 07:36:29;;;;;;;7.13;5.53;;;0.90;99.90;;;;;;5081880;28;20199;-82
2023/01/20 07:38:57;;;;;;;6.32;5.55;;;1.00;99.90;;;;;;5080888;28;20196;-84
2023/01/20 07:41:26;;;;;;;8.77;6.70;;;1.00;99.90;;;;;;5078783;28;20233;-81
2023/01/20 07:43:54;;;;;;;8.55;6.60;;;1.10;98.80;;;;;;5066178;28;20208;-77
2023/01/20 07:46:23;;;;;;;9.80;6.55;;;1.00;99.90;;;;;;5080141;28;20197;-82
2023/01/20 07:48:52;;;;;;;7.10;6.22;;;1.10;99.90;;;;;;5074391;28;20249;-83
2023/01/20 07:51:20;;;;;;;7.72;5.93;;;1.10;73.20;;;;;;5079827;28;20331;-83
2023/01/20 07:53:50;;;;;;;8.70;6.88;;;1.20;99.90;;;;;;5081570;28;20205;-81
2023/01/20 07:56:21;;;;;;;6.00;5.47;;;1.10;99.90;;;;;;5076339;28;20206;-83
2023/01/20 07:58:50;;;;;;;7.15;6.50;;;1.20;99.90;;;;;;5083975;28;20606;-83
2023/01/20 08:01:20;;;;;;;6.03;5.53;;;1.20;99.90;;;;;;5074712;28;20236;-82
2023/01/20 08:03:50;;;;;;;7.95;6.28;;;1.30;99.90;;;;;;5078401;28;20221;-83
2023/01/20 08:06:20;;;;;;;8.23;5.80;;;1.30;99.90;;;;;;5083501;28;20656;-84
2023/01/20 08:08:49;;;;;;;8.77;6.78;;;1.20;99.90;;;;;;5059378;28;20242;-79
2023/01/20 08:11:20;;;;;;;6.95;6.25;;;1.30;99.90;;;;;;5069657;28;20216;-83
2023/01/20 08:13:49;;;;;;;6.30;5.70;;;1.40;99.90;;;;;;5075739;28;20193;-84
2023/01/20 08:16:18;;;;;;;7.45;6.72;;;1.40;99.90;;;;;;5074264;28;20696;-83
2023/01/20 08:18:48;;;;;;;9.52;5.35;;;1.40;99.90;;;;;;5076220;28;20245;-84
2023/01/20 08:21:20;;;;;;;8.13;6.07;;;1.30;99.90;;;;;;5068972;28;20220;-84
2023/01/20 08:23:49;;;;;;;6.70;6.10;;;1.30;99.90;;;;;;5057155;28;20222;-84
2023/01/20 08:26:18;;;;;;;6.55;5.88;;;1.40;99.90;;;;;;5075802;28;20281;-83
2023/01/20 08:28:47;;;;;;;7.57;6.80;;;1.50;99.90;;;;;;5060354;28;20811;-84
2023/01/20 08:31:17;;;;;;;7.45;5.90;;;1.60;99.90;;;;;;5059831;28;20646;-83
2023/01/20 08:33:46;;;;;;;12.30;7.25;;;1.60;99.90;;;;;;5080232;28;20180;-80
2023/01/20 08:36:17;;;;;;;7.90;5.80;;;1.60;99.90;;;;;;5078162;28;20196;-84
2023/01/20 08:38:47;;;;;;;8.65;5.68;;;1.70;99.90;;;;;;5077339;28;20197;-84
2023/01/20 08:41:18;;;;;;;8.32;6.00;;;1.80;99.90;;;;;;5078249;28;20702;-84
2023/01/20 08:43:46;;;;;;;9.10;7.28;;;1.90;80.60;;;;;;5078271;28;20210;-83
2023/01/20 08:46:16;;;;;;;7.35;6.45;;;1.80;99.90;;;;;;5075950;28;20456;-82
2023/01/20 08:48:45;;;;;;;6.80;6.18;;;1.90;76.70;;;;;;5067405;28;20675;-82
2023/01/20 08:51:18;;;;;;;9.43;5.18;;;1.90;46.80;;;;;;5078969;28;20225;-83
2023/01/20 08:53:48;;;;;;;7.32;4.88;;;2.00;55.10;;;;;;5077839;28;20197;-84
2023/01/20 08:56:17;;;;;;;5.78;5.25;;;2.10;1.00;;;;;;5081863;28;20195;-84
2023/01/20 08:58:46;;;;;;;6.45;5.10;;;2.20;1.00;;;;;;5083957;28;20201;-82
2023/01/20 09:01:17;;;;;;;6.63;5.00;;;2.20;1.00;;;;;;5086581;28;20322;-83
2023/01/20 09:03:46;;;;;;;6.35;5.70;;;2.20;1.00;;;;;;5076026;28;20210;-83
2023/01/20 09:06:37;;;;;;;6.97;6.15;;;2.30;1.00;;;;;;5083097;28;20286;-82
2023/01/20 09:09:07;;;;;;;9.85;7.07;;;2.40;1.00;;;;;;5067683;28;20195;-84
2023/01/20 09:11:36;;;;;;;7.90;5.57;;;2.40;1.00;;;;;;5082318;28;20225;-84
2023/01/20 09:14:05;;;;;;;7.00;6.20;;;2.40;1.00;;;;;;5084161;28;20212;-82
2023/01/20 09:16:33;;;;;;;7.32;5.43;;;2.40;1.00;;;;;;5085717;28;20319;-82
2023/01/20 09:19:02;;;;;;;7.90;5.88;;;2.40;1.00;;;;;;5085536;28;20269;-81
2023/01/20 09:21:30;;;;;;;6.35;5.35;;;2.40;1.00;;;;;;5086473;28;20400;-81
2023/01/20 09:23:59;;;;;;;9.68;7.10;;;2.40;1.00;;;;;;5087896;28;20216;-82
2023/01/20 09:26:40;;;;;;;7.68;5.55;;;2.40;1.00;;;;;;5091008;28;20224;-81
2023/01/20 09:29:11;;;;;;;5.95;5.35;;;2.60;1.00;;;;;;5081193;28;20192;-82
2023/01/20 09:31:43;;;;;;;7.50;5.25;;;2.60;1.00;;;;;;5074754;28;20248;-82
2023/01/20 09:34:17;;;;;;;6.72;5.28;;;2.70;1.00;;;;;;5072899;28;20240;-82
2023/01/20 09:36:49;;;;;;;6.05;5.45;;;2.70;1.00;;;;;;5080386;28;20201;-81
2023/01/20 09:45:23;;;;;;;6.35;5.75;;;2.70;99.90;;;;;;5077673;28;20193;-82
2023/01/20 09:48:01;;;;;;;7.05;5.70;;;2.70;1.00;;;;;;5084468;28;20291;-82
2023/01/20 09:53:48;;;;;;;5.30;4.80;;;2.80;99.90;;;;;;5075254;28;20599;-82
2023/01/20 09:56:18;;;;;;;8.15;4.95;;;2.80;99.90;;;;;;5070834;28;20201;-81
2023/01/20 09:58:53;;;;;;;6.07;5.40;;;2.90;99.90;;;;;;5075570;28;20223;-83
2023/01/20 10:01:29;;;;;;;7.03;5.28;;;2.90;99.90;;;;;;5074227;28;20225;-83
2023/01/20 10:04:06;;;;;;;7.00;6.30;;;2.90;99.90;;;;;;5075020;28;20215;-80
2023/01/20 10:06:40;;;;;;;6.07;5.47;;;3.00;1.00;;;;;;5083129;28;20197;-81
2023/01/20 10:09:20;;;;;;;6.50;5.95;;;2.90;99.90;;;;;;5091975;28;20196;-82
2023/01/20 10:11:51;;;;;;;5.95;5.45;;;3.00;99.90;;;;;;5082812;28;20212;-83
2023/01/20 10:14:25;;;;;;;7.00;5.63;;;2.80;99.90;;;;;;5081835;28;20228;-83
2023/01/20 10:16:58;;;;;;;8.73;5.72;;;2.90;1.00;;;;;;5082331;28;20206;-83
2023/01/20 10:19:32;;;;;;;7.00;4.90;;;3.00;1.00;;;;;;5082441;28;20206;-83
2023/01/20 10:22:09;;;;;;;7.63;5.88;;;3.10;1.00;;;;;;5082704;28;20236;-84
2023/01/20 10:24:47;;;;;;;5.65;5.15;;;3.20;99.90;;;;;;5081941;28;20225;-84
2023/01/20 10:27:15;;;;;;;6.40;5.90;;;3.40;99.90;;;;;;5082909;28;20584;-84
2023/01/20 10:29:49;;;;;;;5.25;4.75;;;3.90;99.90;;;;;;5083440;28;20703;-83
2023/01/20 10:32:26;;;;;;;5.47;4.95;;;3.90;99.90;;;;;;5086272;28;20729;-84
2023/01/20 10:34:57;;;;;;;7.05;5.30;;;4.10;99.90;;;;;;5081529;28;20206;-84
2023/01/20 10:37:26;;;;;;;5.65;4.95;;;4.60;99.90;;;;;;5084303;28;20191;-84
2023/01/20 10:39:58;;;;;;;5.63;4.80;;;4.80;99.90;;;;;;5085175;28;20231;-83
2023/01/20 10:42:27;;;;;;;5.38;4.88;;;4.70;99.90;;;;;;5083084;28;20803;-82
2023/01/20 10:44:59;;;;;;;6.20;5.60;;;5.00;99.90;;;;;;5084919;28;20711;-83
2023/01/20 10:47:48;;;;;;;6.50;5.85;;;5.10;99.90;;;;;;5080504;28;20456;-82
2023/01/20 10:50:34;;;;;;;5.60;5.20;;;5.20;99.90;;;;;;5085513;28;20223;-83
2023/01/20 10:53:22;;;;;;;5.15;4.65;;;5.10;99.90;;;;;;5065590;28;20854;-82
2023/01/20 10:56:02;;;;;;;5.18;4.68;;;5.00;99.90;;;;;;5086219;28;20200;-84
2023/01/20 10:58:31;;;;;;;3.70;3.40;;;4.90;99.90;;;;;;5070003;28;20570;-82
2023/01/20 11:01:07;;;;;;;5.10;4.15;;;4.90;99.90;;;;;;5066583;28;20226;-83
2023/01/20 11:03:40;;;;;;;4.90;4.20;;;4.80;99.90;;;;;;5080753;28;20204;-81
2023/01/20 11:06:16;;;;;;;5.47;4.97;;;4.70;99.90;;;;;;5083151;28;20204;-83
2023/01/20 11:08:44;;;;;;;5.82;4.70;;;5.20;99.90;;;;;;5064341;28;20745;-82
2023/01/20 11:11:15;;;;;;;8.83;4.63;;;5.30;99.90;;;;;;5082734;28;20220;-83
2023/01/20 11:13:44;;;;;;;5.97;5.38;;;5.60;99.90;;;;;;5084641;28;20468;-84
2023/01/20 11:16:18;;;;;;;5.45;4.82;;;5.50;99.90;;;;;;5082776;28;20307;-84
2023/01/20 11:18:59;;;;;;;5.10;4.60;;;5.50;99.90;;;;;;5082264;28;20205;-84
2023/01/20 11:21:29;;;;;;;5.32;4.82;;;5.80;99.90;;;;;;5074040;28;20469;-83
2023/01/20 11:23:59;;;;;;;5.77;5.27;;;5.90;99.90;;;;;;5084346;28;20228;-83
2023/01/20 11:26:30;;;;;;;5.67;4.97;;;6.00;99.90;;;;;;5089080;28;20454;-82
2023/01/20 11:29:00;;;;;;;4.23;3.80;;;6.50;99.90;;;;;;5070439;28;20453;-83
2023/01/20 11:31:41;;;;;;;5.20;4.70;;;6.50;99.90;;;;;;5076041;28;21040;-82
2023/01/20 11:34:22;;;;;;;5.43;4.90;;;6.70;99.90;;;;;;5080083;28;20555;-83
2023/01/20 11:37:06;;;;;;;5.90;5.10;;;6.70;99.90;;;;;;5082287;28;20459;-83
2023/01/20 11:39:36;;;;;;;5.70;5.20;;;6.70;99.90;;;;;;5060849;28;20460;-81
2023/01/20 11:42:14;;;;;;;5.90;5.30;;;6.50;99.90;;;;;;5070467;28;20474;-83
2023/01/20 11:44:43;;;;;;;5.77;5.17;;;6.40;99.90;;;;;;5068012;28;20472;-83
2023/01/20 11:47:26;;;;;;;8.67;5.30;;;6.30;99.90;;;;;;5075126;28;20486;-84
2023/01/20 11:50:19;;;;;;;9.70;5.22;;;6.00;99.90;;;;;;5072312;28;20466;-81
2023/01/20 11:52:48;;;;;;;6.32;5.55;;;6.00;99.90;;;;;;5074875;28;20212;-84
2023/01/20 11:55:17;;;;;;;6.77;6.17;;;6.00;99.90;;;;;;5069211;28;20936;-83
2023/01/20 11:57:50;;;;;;;7.55;5.88;;;6.10;99.90;;;;;;5069228;28;20462;-84
2023/01/20 12:00:31;;;;;;;7.13;4.93;;;5.90;99.90;;;;;;5062439;28;20210;-79
2023/01/20 12:03:03;;;;;;;6.00;4.53;;;6.00;99.90;;;;;;5058475;28;20549;-81
2023/01/20 12:05:39;;;;;;;5.93;4.72;;;6.10;99.90;;;;;;5075296;28;20528;-79
2023/01/20 12:08:14;;;;;;;5.93;5.40;;;6.10;99.90;;;;;;5076393;28;20242;-82
2023/01/20 12:10:44;;;;;;;6.45;4.97;;;5.80;99.90;;;;;;5085428;28;20586;-82
2023/01/20 12:13:19;;;;;;;7.37;6.20;;;5.90;99.90;;;;;;5086010;28;20203;-81
2023/01/20 12:15:52;;;;;;;8.30;6.78;;;6.00;99.90;;;;;;5075641;28;20444;-80
2023/01/20 12:18:33;;;;;;;6.43;5.87;;;6.00;99.90;;;;;;5082128;28;20197;-80
2023/01/20 12:21:08;;;;;;;5.17;4.13;;;6.10;99.90;;;;;;5079307;28;20492;-79
2023/01/20 12:23:44;;;;;;;5.57;3.43;;;6.10;99.90;;;;;;5077541;28;20477;-79
2023/01/20 12:26:15;;;;;;;2.97;2.50;;;6.10;99.90;;;;;;5080086;28;20453;-79
2023/01/20 12:28:57;;;;;;;3.03;2.73;;;6.20;99.90;;;;;;5086406;28;20449;-80
2023/01/20 12:31:26;;;;;;;7.60;2.77;;;6.10;99.90;;;;;;5083229;28;20993;-78
2023/01/20 12:34:00;;;;;;;3.03;2.77;;;6.10;99.90;;;;;;5081701;28;20459;-79
2023/01/20 12:36:55;;;;;;;3.10;2.75;;;6.00;99.90;;;;;;5078421;28;20466;-84
2023/01/20 12:39:33;;;;;;;2.57;2.37;;;6.00;99.90;;;;;;5075250;28;20204;-81
2023/01/20 12:42:36;;;;;;;2.50;2.30;;;6.00;99.90;;;;;;5052309;28;20843;-82
2023/01/20 12:45:19;;;;;;;3.70;2.03;;;5.90;99.90;;;;;;5020685;28;20490;-84
2023/01/20 12:48:02;;;;;;;5.00;1.90;;;5.80;99.90;;;;;;5069299;28;20534;-84
2023/01/20 12:50:44;;;;;;;1.80;1.67;;;5.90;99.90;;;;;;5073119;28;20446;-83
2023/01/20 12:53:31;;;;;;;3.30;1.90;;;5.90;99.90;;;;;;5070705;28;20529;-84
2023/01/20 12:56:10;;;;;;;2.87;2.03;;;5.90;99.90;;;;;;5069630;28;20477;-83
2023/01/20 12:58:48;;;;;;;1.90;1.80;;;5.90;99.90;;;;;;5078873;28;20454;-84
2023/01/20 13:01:29;;;;;;;2.00;1.50;;;5.80;99.90;;;;;;5083811;28;20470;-85
2023/01/20 13:04:32;;;;;;;2.33;1.50;;;5.50;99.90;;;;;;5078810;28;20580;-83
2023/01/20 13:07:37;;;;;;;3.40;1.83;;;5.40;99.90;;;;;;5080103;28;20457;-84
2023/01/20 13:10:29;;;;;;;1.50;1.40;;;5.40;99.90;;;;;;5074470;28;20212;-83
2023/01/20 13:13:03;;;;;;;2.10;2.00;;;5.40;99.90;;;;;;5081691;28;20223;-83
2023/01/20 13:15:38;;;;;;;2.58;1.88;;;5.40;99.90;;;;;;5068269;28;20198;-85
2023/01/20 13:18:20;;;;;;;1.73;1.52;;;5.30;99.90;;;;;;5080690;28;20223;-84
2023/01/20 13:20:50;;;;;;;2.20;2.00;;;5.30;99.90;;;;;;5075112;28;20195;-82
2023/01/20 13:23:25;;;;;;;2.50;2.15;;;5.20;99.90;;;;;;5077176;28;20586;-83
2023/01/20 13:25:54;;;;;;;3.25;2.20;;;5.20;99.90;;;;;;5075714;28;20218;-84
2023/01/20 13:28:24;;;;;;;2.85;2.35;;;5.20;99.90;;;;;;5069481;28;20209;-83
2023/01/20 13:30:54;;;;;;;2.95;2.65;;;5.10;99.90;;;;;;5070706;28;20247;-84
2023/01/20 13:33:32;;;;;;;4.13;2.25;;;5.10;99.90;;;;;;5066817;28;20724;-84